Time;durP1;ratioP1;P1;durP2;ratioP2;P2;SDS_P1;SDS_P2;PMS_P1;PMS_P2;Temp;Humidity;BMP_temperature;BMP_pressure;BME280_temperature;BME280_humidity;BME280_pressure;Samples;Min_cycle;Max_cycle;Signal;HPM_P1;HPM_P2
2023/06/13 00:01:37;;;;;;;3.40;2.75;;;;;;;;;;5056537;28;20083;-60
2023/06/13 00:04:03;;;;;;;3.50;2.78;;;;;;;;;;5056235;28;20120;-60
2023/06/13 00:06:30;;;;;;;5.35;2.60;;;;;;;;;;5056998;28;20032;-60
2023/06/13 00:09:00;;;;;;;4.35;2.55;;;;;;;;;;5056169;28;20021;-60
2023/06/13 00:11:26;;;;;;;3.88;2.53;;;;;;;;;;5056905;28;20100;-60
2023/06/13 00:13:52;;;;;;;3.50;2.70;;;;;;;;;;5056122;28;20057;-60
2023/06/13 00:16:25;;;;;;;4.65;2.75;;;;;;;;;;5056452;28;20029;-60
2023/06/13 00:18:52;;;;;;;4.05;2.60;;;;;;;;;;5056567;28;20070;-60
2023/06/13 00:21:18;;;;;;;4.50;2.90;;;;;;;;;;5056731;28;20061;-60
2023/06/13 00:23:44;;;;;;;4.78;3.20;;;;;;;;;;5056470;28;20068;-60
2023/06/13 00:26:10;;;;;;;3.88;2.75;;;;;;;;;;5056454;28;20060;-60
2023/06/13 00:28:36;;;;;;;6.90;2.67;;;;;;;;;;5056130;28;20461;-60
2023/06/13 00:31:02;;;;;;;4.95;2.65;;;;;;;;;;5055804;28;20375;-60
2023/06/13 00:33:31;;;;;;;5.82;2.55;;;;;;;;;;5055957;28;20057;-60
2023/06/13 00:35:57;;;;;;;4.68;2.60;;;;;;;;;;5055626;28;20122;-60
2023/06/13 00:38:23;;;;;;;4.00;2.97;;;;;;;;;;5055651;28;20029;-60
2023/06/13 00:40:50;;;;;;;4.20;2.63;;;;;;;;;;5055565;28;20410;-60
2023/06/13 00:43:17;;;;;;;3.55;2.70;;;;;;;;;;5056038;28;20060;-60
2023/06/13 00:45:43;;;;;;;4.78;3.28;;;;;;;;;;5055957;28;20459;-60
2023/06/13 00:48:09;;;;;;;7.18;2.72;;;;;;;;;;5056079;28;20083;-60
2023/06/13 00:50:40;;;;;;;3.70;2.70;;;;;;;;;;5055436;28;20025;-60
2023/06/13 00:53:10;;;;;;;4.55;2.70;;;;;;;;;;5055949;28;20421;-60
2023/06/13 00:55:37;;;;;;;3.35;2.78;;;;;;;;;;5055765;28;20041;-59
2023/06/13 00:58:06;;;;;;;4.68;3.08;;;;;;;;;;5055374;28;20507;-60
2023/06/13 01:00:36;;;;;;;5.03;3.13;;;;;;;;;;5054890;28;20025;-60
2023/06/13 01:03:06;;;;;;;4.38;2.78;;;;;;;;;;5055496;28;20053;-60
2023/06/13 01:05:32;;;;;;;3.92;2.28;;;;;;;;;;5055304;28;20055;-60
2023/06/13 01:08:00;;;;;;;4.28;2.72;;;;;;;;;;5055444;28;20025;-60
2023/06/13 01:10:27;;;;;;;3.75;2.30;;;;;;;;;;5055796;28;20088;-60
2023/06/13 01:13:04;;;;;;;3.05;2.15;;;;;;;;;;5055047;28;20110;-60
2023/06/13 01:15:33;;;;;;;3.47;3.00;;;;;;;;;;5054916;28;20036;-60
2023/06/13 01:18:01;;;;;;;3.45;2.65;;;;;;;;;;5054918;28;20463;-60
2023/06/13 01:20:31;;;;;;;4.47;2.95;;;;;;;;;;5054800;28;20017;-60
2023/06/13 01:23:14;;;;;;;3.75;2.90;;;;;;;;;;5054770;28;20025;-60
2023/06/13 01:25:47;;;;;;;3.97;2.97;;;;;;;;;;5055325;28;20120;-60
2023/06/13 01:28:14;;;;;;;3.40;2.22;;;;;;;;;;5054715;28;20470;-60
2023/06/13 01:30:41;;;;;;;5.13;2.90;;;;;;;;;;5054860;28;20455;-60
2023/06/13 01:33:08;;;;;;;4.07;2.47;;;;;;;;;;5055095;28;20021;-60
2023/06/13 01:35:34;;;;;;;4.75;2.50;;;;;;;;;;5054677;28;20471;-60
2023/06/13 01:38:00;;;;;;;3.58;2.47;;;;;;;;;;5055365;28;20112;-60
2023/06/13 01:40:26;;;;;;;3.92;2.35;;;;;;;;;;5054517;28;20491;-60
2023/06/13 01:42:52;;;;;;;7.28;2.38;;;;;;;;;;5054385;28;20421;-60
2023/06/13 01:45:18;;;;;;;4.03;2.75;;;;;;;;;;5054273;28;20082;-60
2023/06/13 01:47:56;;;;;;;6.10;2.63;;;;;;;;;;5054655;28;20013;-60
2023/06/13 01:50:31;;;;;;;4.40;2.75;;;;;;;;;;5054631;28;20049;-60
2023/06/13 01:53:15;;;;;;;2.97;2.50;;;;;;;;;;5053616;28;20341;-60
2023/06/13 01:55:46;;;;;;;4.50;2.63;;;;;;;;;;5054158;28;20045;-60
2023/06/13 01:58:32;;;;;;;4.13;2.75;;;;;;;;;;5054499;28;20024;-60
2023/06/13 02:01:00;;;;;;;3.00;2.40;;;;;;;;;;5054314;28;20478;-59
2023/06/13 02:03:27;;;;;;;4.65;2.75;;;;;;;;;;5054027;28;20024;-60
2023/06/13 02:05:53;;;;;;;3.40;2.45;;;;;;;;;;5054250;28;20044;-60
2023/06/13 02:08:19;;;;;;;3.17;2.45;;;;;;;;;;5054483;28;20028;-60
2023/06/13 02:10:45;;;;;;;6.22;2.78;;;;;;;;;;5054253;28;20025;-60
2023/06/13 02:13:11;;;;;;;4.05;2.45;;;;;;;;;;5053414;28;20467;-60
2023/06/13 02:15:37;;;;;;;3.38;2.17;;;;;;;;;;5053743;28;20041;-59
2023/06/13 02:18:03;;;;;;;3.10;2.28;;;;;;;;;;5054208;28;20470;-59
2023/06/13 02:20:29;;;;;;;3.08;2.05;;;;;;;;;;5053830;28;20088;-59
2023/06/13 02:22:56;;;;;;;3.35;2.40;;;;;;;;;;5053790;28;20028;-60
2023/06/13 02:25:22;;;;;;;2.97;2.53;;;;;;;;;;5054284;28;20033;-60
2023/06/13 02:27:48;;;;;;;4.03;2.70;;;;;;;;;;5054380;28;20025;-60
2023/06/13 02:30:14;;;;;;;4.07;2.53;;;;;;;;;;5054044;28;20032;-60
2023/06/13 02:32:41;;;;;;;3.60;2.25;;;;;;;;;;5053752;28;20021;-60
2023/06/13 02:35:10;;;;;;;3.50;2.55;;;;;;;;;;5053510;28;20037;-59
2023/06/13 02:37:36;;;;;;;4.40;2.60;;;;;;;;;;5054215;28;20076;-60
2023/06/13 02:40:05;;;;;;;3.33;2.28;;;;;;;;;;5053545;28;20025;-60
2023/06/13 02:42:31;;;;;;;3.55;2.65;;;;;;;;;;5053489;28;20025;-60
2023/06/13 02:44:57;;;;;;;4.30;2.60;;;;;;;;;;5053865;28;20025;-59
2023/06/13 02:47:23;;;;;;;7.75;3.08;;;;;;;;;;5053884;28;20104;-60
2023/06/13 02:49:49;;;;;;;3.42;2.28;;;;;;;;;;5053566;28;20075;-60
2023/06/13 02:52:15;;;;;;;3.50;2.25;;;;;;;;;;5054280;28;20021;-59
2023/06/13 02:54:41;;;;;;;3.55;2.35;;;;;;;;;;5053678;28;20025;-60
2023/06/13 02:57:09;;;;;;;3.65;2.47;;;;;;;;;;5054048;28;20036;-60
2023/06/13 02:59:35;;;;;;;2.75;2.10;;;;;;;;;;5053874;28;20025;-60
2023/06/13 03:02:01;;;;;;;3.15;2.40;;;;;;;;;;5053486;28;20175;-60
2023/06/13 03:04:28;;;;;;;5.15;2.55;;;;;;;;;;5055658;28;20032;-60
2023/06/13 03:06:54;;;;;;;3.45;2.80;;;;;;;;;;5058216;28;20036;-60
2023/06/13 03:09:20;;;;;;;3.70;2.63;;;;;;;;;;5057313;28;20515;-59
2023/06/13 03:11:46;;;;;;;2.88;2.40;;;;;;;;;;5057722;28;20093;-59
2023/06/13 03:14:12;;;;;;;4.72;1.92;;;;;;;;;;5057379;28;20056;-60
2023/06/13 03:16:38;;;;;;;3.88;2.38;;;;;;;;;;5057362;28;20029;-60
2023/06/13 03:19:05;;;;;;;3.05;2.05;;;;;;;;;;5057136;28;20375;-59
2023/06/13 03:21:31;;;;;;;3.03;1.95;;;;;;;;;;5057937;28;20029;-59
2023/06/13 03:23:57;;;;;;;3.28;2.47;;;;;;;;;;5057055;28;20083;-60
2023/06/13 03:26:23;;;;;;;3.60;2.58;;;;;;;;;;5056764;28;20029;-60
2023/06/13 03:28:49;;;;;;;3.42;2.55;;;;;;;;;;5056672;28;20071;-60
2023/06/13 03:31:16;;;;;;;2.50;1.77;;;;;;;;;;5057278;28;20028;-60
2023/06/13 03:33:41;;;;;;;2.78;2.08;;;;;;;;;;5057635;28;20540;-60
2023/06/13 03:36:08;;;;;;;2.80;2.00;;;;;;;;;;5057248;28;20041;-60
2023/06/13 03:38:33;;;;;;;3.17;2.05;;;;;;;;;;5056872;28;20025;-60
2023/06/13 03:40:59;;;;;;;3.40;2.55;;;;;;;;;;5056570;28;20398;-60
2023/06/13 03:43:26;;;;;;;5.57;2.10;;;;;;;;;;5056617;28;20028;-60
2023/06/13 03:45:52;;;;;;;3.65;2.42;;;;;;;;;;5057498;28;20040;-59
2023/06/13 03:48:19;;;;;;;4.47;2.20;;;;;;;;;;5056685;28;20463;-60
2023/06/13 03:50:45;;;;;;;5.53;2.92;;;;;;;;;;5056645;28;20048;-59
2023/06/13 03:53:11;;;;;;;3.03;2.08;;;;;;;;;;5056581;28;20486;-60
2023/06/13 03:55:37;;;;;;;3.13;2.28;;;;;;;;;;5056493;28;20037;-60
2023/06/13 03:58:04;;;;;;;2.97;2.30;;;;;;;;;;5057050;28;20035;-60
2023/06/13 04:00:33;;;;;;;4.10;2.45;;;;;;;;;;5056369;28;20025;-60
2023/06/13 04:03:00;;;;;;;2.95;2.05;;;;;;;;;;5056710;28;20023;-59
2023/06/13 04:05:26;;;;;;;3.58;2.67;;;;;;;;;;5056288;28;20505;-60
2023/06/13 04:07:54;;;;;;;2.97;1.90;;;;;;;;;;5056829;28;20434;-60
2023/06/13 04:10:21;;;;;;;3.92;2.10;;;;;;;;;;5056816;28;20017;-59
2023/06/13 04:12:47;;;;;;;3.22;2.42;;;;;;;;;;5055952;28;20025;-59
2023/06/13 04:15:13;;;;;;;3.28;2.20;;;;;;;;;;5055527;28;20040;-59
2023/06/13 04:17:40;;;;;;;3.58;2.17;;;;;;;;;;5056661;28;20033;-60
2023/06/13 04:20:08;;;;;;;4.47;2.80;;;;;;;;;;5056144;28;20451;-60
2023/06/13 04:22:35;;;;;;;3.20;1.65;;;;;;;;;;5055952;28;20025;-60
2023/06/13 04:25:01;;;;;;;3.30;2.08;;;;;;;;;;5055928;28;20017;-60
2023/06/13 04:27:29;;;;;;;5.22;2.45;;;;;;;;;;5056538;28;20052;-60
2023/06/13 04:29:56;;;;;;;3.13;2.30;;;;;;;;;;5055571;28;20506;-60
2023/06/13 04:32:23;;;;;;;3.08;1.98;;;;;;;;;;5055773;28;20079;-60
2023/06/13 04:34:54;;;;;;;3.63;2.20;;;;;;;;;;5055682;28;20023;-59
2023/06/13 04:37:25;;;;;;;3.10;1.90;;;;;;;;;;5056649;28;20354;-59
2023/06/13 04:39:51;;;;;;;4.68;2.55;;;;;;;;;;5056294;28;20036;-60
2023/06/13 04:42:24;;;;;;;2.75;2.05;;;;;;;;;;5055591;28;20056;-60
2023/06/13 04:44:52;;;;;;;3.25;2.40;;;;;;;;;;5056421;28;20036;-60
2023/06/13 04:47:18;;;;;;;3.58;2.08;;;;;;;;;;5055928;28;20013;-59
2023/06/13 04:49:45;;;;;;;3.60;2.30;;;;;;;;;;5055776;28;20417;-60
2023/06/13 04:52:14;;;;;;;3.53;1.85;;;;;;;;;;5055944;28;20028;-60
2023/06/13 04:54:40;;;;;;;4.50;1.83;;;;;;;;;;5055341;28;20028;-60
2023/06/13 04:57:06;;;;;;;4.90;2.20;;;;;;;;;;5055945;28;20029;-60
2023/06/13 04:59:32;;;;;;;3.15;2.20;;;;;;;;;;5055322;28;20493;-60
2023/06/13 05:01:58;;;;;;;3.22;2.53;;;;;;;;;;5055781;28;20060;-59
2023/06/13 05:04:25;;;;;;;2.92;1.70;;;;;;;;;;5055158;28;20347;-60
2023/06/13 05:06:50;;;;;;;3.38;2.40;;;;;;;;;;5055961;28;20033;-59
2023/06/13 05:09:17;;;;;;;4.32;2.00;;;;;;;;;;5055187;28;20029;-60
2023/06/13 05:11:43;;;;;;;3.05;2.08;;;;;;;;;;5054989;28;20033;-59
2023/06/13 05:14:09;;;;;;;2.80;1.50;;;;;;;;;;5055462;28;20049;-60
2023/06/13 05:16:35;;;;;;;2.55;1.77;;;;;;;;;;5055085;28;20033;-60
2023/06/13 05:19:01;;;;;;;2.05;1.60;;;;;;;;;;5054969;28;20017;-60
2023/06/13 05:21:31;;;;;;;2.70;1.70;;;;;;;;;;5054614;28;20017;-59
2023/06/13 05:23:58;;;;;;;3.28;1.98;;;;;;;;;;5054804;28;20029;-60
2023/06/13 05:26:24;;;;;;;2.75;1.98;;;;;;;;;;5055211;28;20025;-59
2023/06/13 05:28:50;;;;;;;3.85;2.35;;;;;;;;;;5054912;28;20031;-59
2023/06/13 05:31:16;;;;;;;3.33;1.90;;;;;;;;;;5054662;28;20021;-59
2023/06/13 05:33:42;;;;;;;2.85;1.60;;;;;;;;;;5054526;28;20021;-60
2023/06/13 05:36:08;;;;;;;3.83;2.45;;;;;;;;;;5055040;28;20108;-60
2023/06/13 05:38:36;;;;;;;3.75;2.10;;;;;;;;;;5054190;28;20044;-59
2023/06/13 05:41:02;;;;;;;4.03;1.95;;;;;;;;;;5053838;28;20032;-60
2023/06/13 05:43:28;;;;;;;3.10;1.80;;;;;;;;;;5054482;28;20028;-60
2023/06/13 05:45:54;;;;;;;3.42;2.30;;;;;;;;;;5054160;28;20025;-60
2023/06/13 05:48:20;;;;;;;3.53;2.42;;;;;;;;;;5054402;28;20021;-59
2023/06/13 05:50:46;;;;;;;3.03;1.90;;;;;;;;;;5054500;28;20029;-59
2023/06/13 05:53:12;;;;;;;3.70;1.98;;;;;;;;;;5054021;28;20032;-60
2023/06/13 05:55:38;;;;;;;7.15;2.00;;;;;;;;;;5054126;28;20033;-59
2023/06/13 05:58:04;;;;;;;3.22;1.95;;;;;;;;;;5054532;28;20024;-60
2023/06/13 06:00:30;;;;;;;3.60;1.73;;;;;;;;;;5053900;28;20021;-60
2023/06/13 06:02:56;;;;;;;3.03;1.95;;;;;;;;;;5054161;28;20059;-60
2023/06/13 06:05:24;;;;;;;2.65;1.73;;;;;;;;;;5053917;28;20464;-60
2023/06/13 06:07:50;;;;;;;2.55;1.77;;;;;;;;;;5054571;28;20029;-60
2023/06/13 06:10:16;;;;;;;3.47;2.45;;;;;;;;;;5053699;28;20029;-60
2023/06/13 06:12:42;;;;;;;2.88;1.83;;;;;;;;;;5053695;28;20082;-61
2023/06/13 06:15:08;;;;;;;2.38;1.70;;;;;;;;;;5053421;28;20383;-60
2023/06/13 06:17:34;;;;;;;3.83;2.55;;;;;;;;;;5053787;28;20033;-60
2023/06/13 06:20:00;;;;;;;2.88;1.75;;;;;;;;;;5054201;28;20021;-60
2023/06/13 06:22:26;;;;;;;2.92;2.03;;;;;;;;;;5053411;28;20025;-60
2023/06/13 06:24:52;;;;;;;3.80;2.70;;;;;;;;;;5053519;28;20564;-59
2023/06/13 06:27:18;;;;;;;2.65;1.73;;;;;;;;;;5054353;28;20166;-60
2023/06/13 06:29:44;;;;;;;3.92;2.67;;;;;;;;;;5053783;28;20379;-60
2023/06/13 06:32:10;;;;;;;7.88;2.28;;;;;;;;;;5053633;28;20073;-60
2023/06/13 06:34:37;;;;;;;3.08;1.88;;;;;;;;;;5053687;28;20120;-60
2023/06/13 06:37:03;;;;;;;3.05;1.88;;;;;;;;;;5053673;28;20032;-60
2023/06/13 06:39:29;;;;;;;4.30;2.30;;;;;;;;;;5053920;28;20124;-60
2023/06/13 06:41:55;;;;;;;3.28;1.95;;;;;;;;;;5054078;28;20112;-60
2023/06/13 06:44:21;;;;;;;3.75;2.15;;;;;;;;;;5054181;28;20423;-60
2023/06/13 06:46:47;;;;;;;5.43;2.53;;;;;;;;;;5053520;28;20079;-60
2023/06/13 06:49:13;;;;;;;3.35;1.92;;;;;;;;;;5053995;28;20021;-60
2023/06/13 06:51:39;;;;;;;3.53;1.85;;;;;;;;;;5053496;28;20029;-60
2023/06/13 06:54:05;;;;;;;3.00;2.22;;;;;;;;;;5053349;28;20021;-60
2023/06/13 06:56:31;;;;;;;3.25;2.28;;;;;;;;;;5053817;28;20036;-60
2023/06/13 06:58:57;;;;;;;4.05;2.70;;;;;;;;;;5053492;28;20028;-60
2023/06/13 07:01:23;;;;;;;3.55;2.20;;;;;;;;;;5053674;28;20044;-60
2023/06/13 07:03:49;;;;;;;2.85;2.05;;;;;;;;;;5053137;28;20196;-60
2023/06/13 07:06:15;;;;;;;3.28;2.28;;;;;;;;;;5053211;28;20533;-60
2023/06/13 07:08:41;;;;;;;3.70;2.03;;;;;;;;;;5053281;28;20116;-60
2023/06/13 07:11:07;;;;;;;3.08;2.05;;;;;;;;;;5053413;28;20043;-60
2023/06/13 07:13:33;;;;;;;3.53;1.70;;;;;;;;;;5053144;28;20059;-60
2023/06/13 07:16:00;;;;;;;3.90;2.50;;;;;;;;;;5053776;28;20029;-60
2023/06/13 07:18:26;;;;;;;3.47;2.13;;;;;;;;;;5052938;28;20486;-60
2023/06/13 07:20:52;;;;;;;3.15;1.77;;;;;;;;;;5053371;28;20036;-60
2023/06/13 07:23:18;;;;;;;3.47;1.90;;;;;;;;;;5053551;28;20029;-60
2023/06/13 07:25:44;;;;;;;3.28;2.25;;;;;;;;;;5051865;28;20471;-60
2023/06/13 07:28:10;;;;;;;4.43;1.90;;;;;;;;;;5053882;28;20082;-60
2023/06/13 07:30:36;;;;;;;2.90;2.05;;;;;;;;;;5053304;28;20478;-60
2023/06/13 07:33:02;;;;;;;3.78;2.13;;;;;;;;;;5053511;28;20025;-60
2023/06/13 07:35:29;;;;;;;4.18;2.15;;;;;;;;;;5053097;28;20040;-60
2023/06/13 07:37:58;;;;;;;3.30;2.22;;;;;;;;;;5053023;28;20028;-60
2023/06/13 07:40:24;;;;;;;3.85;1.95;;;;;;;;;;5053395;28;20152;-60
2023/06/13 07:42:50;;;;;;;2.78;1.88;;;;;;;;;;5053008;28;20039;-60
2023/06/13 07:45:17;;;;;;;3.30;2.25;;;;;;;;;;5052767;28;20383;-60
2023/06/13 07:47:43;;;;;;;2.58;1.95;;;;;;;;;;5053426;28;20029;-61
2023/06/13 07:50:09;;;;;;;2.90;2.30;;;;;;;;;;5053115;28;20030;-61
2023/06/13 07:52:35;;;;;;;3.20;2.05;;;;;;;;;;5057204;28;20075;-59
2023/06/13 07:55:01;;;;;;;9.98;2.38;;;;;;;;;;5056122;28;20083;-59
2023/06/13 07:57:27;;;;;;;2.95;2.20;;;;;;;;;;5057084;28;20054;-60
2023/06/13 07:59:54;;;;;;;2.78;1.80;;;;;;;;;;5056225;28;20060;-60
2023/06/13 08:02:20;;;;;;;3.08;2.20;;;;;;;;;;5056454;28;20029;-60
2023/06/13 08:04:46;;;;;;;2.95;1.55;;;;;;;;;;5056337;28;20055;-60
2023/06/13 08:07:12;;;;;;;2.88;2.13;;;;;;;;;;5056116;28;20177;-60
2023/06/13 08:09:38;;;;;;;5.07;2.67;;;;;;;;;;5055747;28;20356;-59
2023/06/13 08:12:04;;;;;;;3.38;2.30;;;;;;;;;;5056165;28;20024;-59
2023/06/13 08:14:30;;;;;;;5.82;2.30;;;;;;;;;;5056561;28;20056;-59
2023/06/13 08:16:56;;;;;;;3.75;2.40;;;;;;;;;;5056574;28;20033;-59
2023/06/13 08:19:22;;;;;;;4.63;2.55;;;;;;;;;;5055723;28;20301;-59
2023/06/13 08:21:48;;;;;;;3.90;2.78;;;;;;;;;;5056592;28;20083;-60
2023/06/13 08:24:14;;;;;;;5.15;2.15;;;;;;;;;;5056063;28;20021;-60
2023/06/13 08:26:40;;;;;;;3.58;2.47;;;;;;;;;;5056028;28;20037;-60
2023/06/13 08:29:06;;;;;;;3.95;2.65;;;;;;;;;;5055960;28;20116;-59
2023/06/13 08:31:33;;;;;;;4.03;2.22;;;;;;;;;;5056116;28;20064;-60
2023/06/13 08:33:59;;;;;;;3.05;2.00;;;;;;;;;;5055774;28;20064;-60
2023/06/13 08:36:28;;;;;;;4.13;2.50;;;;;;;;;;5056497;28;20039;-60
2023/06/13 08:38:57;;;;;;;2.55;1.73;;;;;;;;;;5055710;28;20025;-60
2023/06/13 08:41:25;;;;;;;4.93;2.50;;;;;;;;;;5055948;28;20021;-60
2023/06/13 08:43:52;;;;;;;3.45;2.90;;;;;;;;;;5056449;28;20364;-60
2023/06/13 08:46:18;;;;;;;3.10;2.28;;;;;;;;;;5056234;28;20025;-60
2023/06/13 08:48:44;;;;;;;4.75;2.33;;;;;;;;;;5055425;28;20533;-59
2023/06/13 08:51:16;;;;;;;11.52;2.20;;;;;;;;;;5055434;28;20379;-60
2023/06/13 08:53:46;;;;;;;3.88;2.00;;;;;;;;;;5055875;28;20024;-60
2023/06/13 08:56:12;;;;;;;4.35;2.13;;;;;;;;;;5055852;28;20035;-60
2023/06/13 08:58:39;;;;;;;2.55;2.00;;;;;;;;;;5055394;28;20021;-60
2023/06/13 09:01:06;;;;;;;3.13;1.98;;;;;;;;;;5055567;28;20025;-60
2023/06/13 09:03:32;;;;;;;2.33;1.67;;;;;;;;;;5055177;28;20300;-60
2023/06/13 09:06:00;;;;;;;4.00;2.28;;;;;;;;;;5055393;28;20113;-60
2023/06/13 09:08:27;;;;;;;3.88;2.60;;;;;;;;;;5055153;28;20138;-60
2023/06/13 09:10:54;;;;;;;3.13;2.40;;;;;;;;;;5055420;28;20083;-60
2023/06/13 09:13:22;;;;;;;3.40;2.47;;;;;;;;;;5054784;28;20095;-60
2023/06/13 09:15:48;;;;;;;2.90;2.30;;;;;;;;;;5054701;28;20040;-60
2023/06/13 09:18:15;;;;;;;3.00;2.17;;;;;;;;;;5055003;28;20021;-60
2023/06/13 09:20:41;;;;;;;3.42;2.22;;;;;;;;;;5054952;28;20021;-60
2023/06/13 09:23:07;;;;;;;4.07;2.03;;;;;;;;;;5055211;28;20032;-60
2023/06/13 09:25:35;;;;;;;4.05;2.20;;;;;;;;;;5054910;28;20060;-60
2023/06/13 09:28:20;;;;;;;3.30;2.28;;;;;;;;;;5055128;28;20055;-60
2023/06/13 09:30:46;;;;;;;3.42;2.30;;;;;;;;;;5054747;28;20068;-60
2023/06/13 09:33:15;;;;;;;3.90;2.50;;;;;;;;;;5054709;28;20424;-60
2023/06/13 09:35:41;;;;;;;2.95;2.08;;;;;;;;;;5055050;28;20086;-60
2023/06/13 09:38:07;;;;;;;5.63;2.40;;;;;;;;;;5054888;28;20028;-60
2023/06/13 09:40:34;;;;;;;9.77;2.67;;;;;;;;;;5054851;28;20021;-60
2023/06/13 09:43:02;;;;;;;3.67;2.58;;;;;;;;;;5054986;28;20032;-60
2023/06/13 09:45:29;;;;;;;3.10;2.65;;;;;;;;;;5054471;28;20549;-60
2023/06/13 09:47:55;;;;;;;3.65;2.53;;;;;;;;;;5054993;28;20104;-60
2023/06/13 09:50:22;;;;;;;3.67;2.40;;;;;;;;;;5054370;28;20475;-60
2023/06/13 09:52:48;;;;;;;5.15;2.20;;;;;;;;;;5054884;28;20345;-60
2023/06/13 09:55:14;;;;;;;6.38;2.67;;;;;;;;;;5054240;28;20032;-60
2023/06/13 09:57:40;;;;;;;2.83;1.95;;;;;;;;;;5054404;28;20025;-60
2023/06/13 10:00:08;;;;;;;4.50;2.63;;;;;;;;;;5054728;28;20025;-60
2023/06/13 10:02:35;;;;;;;4.15;2.40;;;;;;;;;;5054083;28;20039;-60
2023/06/13 10:05:01;;;;;;;3.08;2.03;;;;;;;;;;5053985;28;20031;-60
2023/06/13 10:07:27;;;;;;;3.30;2.45;;;;;;;;;;5054466;28;20032;-60
2023/06/13 10:09:54;;;;;;;4.68;2.75;;;;;;;;;;5054098;28;20029;-60
2023/06/13 10:12:21;;;;;;;4.07;2.55;;;;;;;;;;5053960;28;20068;-60
2023/06/13 10:15:03;;;;;;;7.05;2.33;;;;;;;;;;5054372;28;20053;-60
2023/06/13 10:17:30;;;;;;;3.40;2.05;;;;;;;;;;5054361;28;20464;-60
2023/06/13 10:20:01;;;;;;;3.20;1.90;;;;;;;;;;5054426;28;20021;-60
2023/06/13 10:22:26;;;;;;;2.97;2.13;;;;;;;;;;5054277;28;20021;-60
2023/06/13 10:24:54;;;;;;;3.00;2.30;;;;;;;;;;5054112;28;20032;-60
2023/06/13 10:27:21;;;;;;;4.28;2.40;;;;;;;;;;5054776;28;20032;-60
2023/06/13 10:30:06;;;;;;;4.10;2.33;;;;;;;;;;5054088;28;20170;-60
2023/06/13 10:32:50;;;;;;;4.03;2.47;;;;;;;;;;5054097;28;20487;-60
2023/06/13 10:35:16;;;;;;;3.53;2.20;;;;;;;;;;5053559;28;20132;-60
2023/06/13 10:37:53;;;;;;;3.13;2.42;;;;;;;;;;5054148;28;20100;-60
2023/06/13 10:40:37;;;;;;;5.25;2.13;;;;;;;;;;5054240;28;20025;-60
2023/06/13 10:43:08;;;;;;;3.35;2.17;;;;;;;;;;5053877;28;20107;-60
2023/06/13 10:45:35;;;;;;;3.47;2.20;;;;;;;;;;5054040;28;20025;-60
2023/06/13 10:48:05;;;;;;;3.42;2.20;;;;;;;;;;5054454;28;20524;-60
2023/06/13 10:50:36;;;;;;;2.90;2.15;;;;;;;;;;5054338;28;20090;-61
2023/06/13 10:53:02;;;;;;;3.85;2.25;;;;;;;;;;5053835;28;20497;-61
2023/06/13 10:55:29;;;;;;;3.50;2.25;;;;;;;;;;5054106;28;20037;-61
2023/06/13 10:58:01;;;;;;;4.00;2.60;;;;;;;;;;5054351;28;20029;-61
2023/06/13 11:00:29;;;;;;;4.47;2.80;;;;;;;;;;5053444;28;20021;-60
2023/06/13 11:02:58;;;;;;;4.05;2.20;;;;;;;;;;5053342;28;20669;-61
2023/06/13 11:05:24;;;;;;;3.13;2.13;;;;;;;;;;5053475;28;20116;-61
2023/06/13 11:07:50;;;;;;;2.58;1.98;;;;;;;;;;5054081;28;20021;-61
2023/06/13 11:10:19;;;;;;;4.93;2.40;;;;;;;;;;5053453;28;20087;-61
2023/06/13 11:12:45;;;;;;;3.70;2.25;;;;;;;;;;5053170;28;20147;-61
2023/06/13 11:15:26;;;;;;;4.22;2.47;;;;;;;;;;5053304;28;20017;-61
2023/06/13 11:18:21;;;;;;;2.33;2.00;;;;;;;;;;5053561;28;20104;-61
2023/06/13 11:20:50;;;;;;;4.95;2.30;;;;;;;;;;5053555;28;20025;-61
2023/06/13 11:23:17;;;;;;;4.43;2.17;;;;;;;;;;5053292;28;20336;-61
2023/06/13 11:25:43;;;;;;;7.28;2.47;;;;;;;;;;5055474;28;20036;-61
2023/06/13 11:28:09;;;;;;;2.72;2.00;;;;;;;;;;5057488;28;20067;-61
2023/06/13 11:30:35;;;;;;;4.15;2.58;;;;;;;;;;5057233;28;20447;-61
2023/06/13 11:33:02;;;;;;;5.68;2.58;;;;;;;;;;5056977;28;20039;-61
2023/06/13 11:35:28;;;;;;;3.83;2.65;;;;;;;;;;5056800;28;20082;-61
2023/06/13 11:37:59;;;;;;;2.80;2.35;;;;;;;;;;5057521;28;20021;-61
2023/06/13 11:40:30;;;;;;;3.80;2.63;;;;;;;;;;5056685;28;20055;-61
2023/06/13 11:42:56;;;;;;;2.97;2.10;;;;;;;;;;5056863;28;20083;-61
2023/06/13 11:45:26;;;;;;;3.97;2.60;;;;;;;;;;5056732;28;20033;-61
2023/06/13 11:48:01;;;;;;;2.70;2.00;;;;;;;;;;5057332;28;20021;-61
2023/06/13 11:50:27;;;;;;;2.97;2.00;;;;;;;;;;5056663;28;20029;-61
2023/06/13 11:53:09;;;;;;;2.92;2.22;;;;;;;;;;5056651;28;20017;-61
2023/06/13 11:55:35;;;;;;;4.60;3.08;;;;;;;;;;5056470;28;20029;-61
2023/06/13 11:58:01;;;;;;;3.47;2.63;;;;;;;;;;5057316;28;20036;-61
2023/06/13 12:00:28;;;;;;;3.03;2.30;;;;;;;;;;5056592;28;20123;-61
2023/06/13 12:02:55;;;;;;;5.97;2.55;;;;;;;;;;5056400;28;20071;-61
2023/06/13 12:05:21;;;;;;;9.65;2.83;;;;;;;;;;5056338;28;20103;-61
2023/06/13 12:07:48;;;;;;;3.67;2.85;;;;;;;;;;5056965;28;20163;-61
2023/06/13 12:10:15;;;;;;;2.95;2.13;;;;;;;;;;5056765;28;20021;-61
2023/06/13 12:12:40;;;;;;;2.63;2.13;;;;;;;;;;5056253;28;20115;-61
2023/06/13 12:15:13;;;;;;;3.15;2.10;;;;;;;;;;5056172;28;20455;-61
2023/06/13 12:17:53;;;;;;;5.35;2.90;;;;;;;;;;5056401;28;20083;-61
2023/06/13 12:20:21;;;;;;;4.75;2.35;;;;;;;;;;5056163;28;20020;-61
2023/06/13 12:22:54;;;;;;;3.60;2.20;;;;;;;;;;5056050;28;20086;-61
2023/06/13 12:25:21;;;;;;;4.22;2.78;;;;;;;;;;5056870;28;20067;-61
2023/06/13 12:27:50;;;;;;;4.53;2.28;;;;;;;;;;5056040;28;20053;-61
2023/06/13 12:30:17;;;;;;;4.68;2.65;;;;;;;;;;5055910;28;20047;-61
2023/06/13 12:32:44;;;;;;;4.95;2.47;;;;;;;;;;5055890;28;20075;-61
2023/06/13 12:35:11;;;;;;;3.92;2.53;;;;;;;;;;5056299;28;20456;-61
2023/06/13 12:37:38;;;;;;;3.65;2.33;;;;;;;;;;5055802;28;20064;-61
2023/06/13 12:40:12;;;;;;;3.83;3.03;;;;;;;;;;5055676;28;20025;-61
2023/06/13 12:42:42;;;;;;;3.50;2.78;;;;;;;;;;5055716;28;20474;-61
2023/06/13 12:45:09;;;;;;;3.60;2.92;;;;;;;;;;5056277;28;20029;-61
2023/06/13 12:47:35;;;;;;;3.58;2.72;;;;;;;;;;5055956;28;20024;-61
2023/06/13 12:50:08;;;;;;;4.95;2.28;;;;;;;;;;5056108;28;20029;-61
2023/06/13 12:52:35;;;;;;;3.28;2.38;;;;;;;;;;5055423;28;20017;-61
2023/06/13 12:55:01;;;;;;;3.60;2.72;;;;;;;;;;5055377;28;20093;-61
2023/06/13 12:57:27;;;;;;;3.20;2.38;;;;;;;;;;5055465;28;20048;-61
2023/06/13 12:59:53;;;;;;;3.65;2.22;;;;;;;;;;5055403;28;20021;-61
2023/06/13 13:02:22;;;;;;;8.02;3.22;;;;;;;;;;5055900;28;20048;-61
2023/06/13 13:04:49;;;;;;;4.65;2.53;;;;;;;;;;5055612;28;20029;-61
2023/06/13 13:07:15;;;;;;;2.95;2.65;;;;;;;;;;5055657;28;20036;-61
2023/06/13 13:09:45;;;;;;;4.10;2.80;;;;;;;;;;5055174;28;20021;-61
2023/06/13 13:12:13;;;;;;;5.15;2.78;;;;;;;;;;5055613;28;20029;-61
2023/06/13 13:14:39;;;;;;;3.30;2.55;;;;;;;;;;5054606;28;20102;-61
2023/06/13 13:17:05;;;;;;;4.15;2.80;;;;;;;;;;5055497;28;20056;-61
2023/06/13 13:19:32;;;;;;;3.45;2.58;;;;;;;;;;5054991;28;20036;-61
2023/06/13 13:21:58;;;;;;;3.90;2.38;;;;;;;;;;5054806;28;20108;-61
2023/06/13 13:24:25;;;;;;;3.78;2.63;;;;;;;;;;5054882;28;20056;-61
2023/06/13 13:26:52;;;;;;;3.03;2.67;;;;;;;;;;5055128;28;20039;-61
2023/06/13 13:29:18;;;;;;;3.65;3.00;;;;;;;;;;5054812;28;20017;-61
2023/06/13 13:31:44;;;;;;;4.68;2.25;;;;;;;;;;5055081;28;20021;-61
2023/06/13 13:34:11;;;;;;;4.03;2.70;;;;;;;;;;5054535;28;20108;-61
2023/06/13 13:36:37;;;;;;;4.10;2.17;;;;;;;;;;5054656;28;20029;-61
2023/06/13 13:39:04;;;;;;;7.30;3.40;;;;;;;;;;5054618;28;20588;-61
2023/06/13 13:41:32;;;;;;;3.85;2.65;;;;;;;;;;5054264;28;20116;-61
2023/06/13 13:43:59;;;;;;;4.63;3.05;;;;;;;;;;5054347;28;20079;-61
2023/06/13 13:46:25;;;;;;;6.20;3.10;;;;;;;;;;5055068;28;20037;-61
2023/06/13 13:48:51;;;;;;;3.65;3.08;;;;;;;;;;5054319;28;20036;-61
2023/06/13 13:51:17;;;;;;;4.03;2.78;;;;;;;;;;5054812;28;20049;-62
2023/06/13 13:53:44;;;;;;;4.32;2.45;;;;;;;;;;5054879;28;20388;-62
2023/06/13 13:56:10;;;;;;;3.80;3.10;;;;;;;;;;5055098;28;20041;-61
2023/06/13 13:58:36;;;;;;;3.33;2.53;;;;;;;;;;5054470;28;20059;-61
2023/06/13 14:01:02;;;;;;;3.38;2.47;;;;;;;;;;5054524;28;20036;-61
2023/06/13 14:03:28;;;;;;;3.42;2.60;;;;;;;;;;5054638;28;20017;-62
2023/06/13 14:05:54;;;;;;;3.88;2.85;;;;;;;;;;5054034;28;20025;-61
2023/06/13 14:08:20;;;;;;;3.53;2.85;;;;;;;;;;5054213;28;20031;-62
2023/06/13 14:10:46;;;;;;;6.10;3.30;;;;;;;;;;5053751;28;20020;-61
2023/06/13 14:13:14;;;;;;;3.35;2.83;;;;;;;;;;5054424;28;20049;-62
2023/06/13 14:15:40;;;;;;;4.53;3.08;;;;;;;;;;5054209;28;20384;-62
2023/06/13 14:18:07;;;;;;;3.80;3.00;;;;;;;;;;5054005;28;20132;-61
2023/06/13 14:20:33;;;;;;;7.63;3.20;;;;;;;;;;5054222;28;20104;-62
2023/06/13 14:22:59;;;;;;;3.60;2.45;;;;;;;;;;5054421;28;20082;-62
2023/06/13 14:25:25;;;;;;;4.07;2.58;;;;;;;;;;5053722;28;20035;-60
2023/06/13 14:27:51;;;;;;;4.43;3.13;;;;;;;;;;5054119;28;20021;-61
2023/06/13 14:30:17;;;;;;;4.15;2.70;;;;;;;;;;5054005;28;20075;-61
2023/06/13 14:32:43;;;;;;;3.22;2.60;;;;;;;;;;5054258;28;20506;-61
2023/06/13 14:35:09;;;;;;;6.07;2.97;;;;;;;;;;5053426;28;20078;-61
2023/06/13 14:37:34;;;;;;;11.82;3.35;;;;;;;;;;5054277;28;20032;-61
2023/06/13 14:40:01;;;;;;;5.63;2.60;;;;;;;;;;5054009;28;20021;-61
2023/06/13 14:42:27;;;;;;;8.07;3.40;;;;;;;;;;5053607;28;20024;-61
2023/06/13 14:44:53;;;;;;;7.88;3.80;;;;;;;;;;5053619;28;20029;-61